• Join FlightAware (Why Join?)
  • Login
  • US Flag 
10:39PM EDT


 

Airport Tracker/Info


-or-


 

Live Flight TrackerFlight Track Log ✈ CTL13 ✈ 20 Aug 2013 ✈ KOSU - KEYE

Flight Track Log - Related Links

Times and Time Zones

All times are in EDT time to prevent confusion due to time zone crossing. See the CTL13 flight status page for this flight to view local times or setup timezone preferences in your user account.

Time Position Orientation Groundspeed Altitude Reporting Facility
EDT Latitude Longitude Course Direction KTS MPH feet Rate Location/Type
06:50PM 40.0761 -83.1022 265° West 111 128 1,500  Level Indianapolis Center
06:51PM 40.0739 -83.1483 266° West 130 150 2,300 720 Climbing Indianapolis Center
06:52PM 40.0708 -83.2025 266° West 150 173 3,000 720 Climbing Indianapolis Center
06:53PM 40.0703 -83.2492 269° West 141 162 3,700 780 Climbing Indianapolis Center
06:54PM 40.0672 -83.3033 266° West 143 165 4,500 660 Climbing Indianapolis Center
06:55PM 40.0672 -83.3242 270° West 143 165 4,700 540 Climbing Indianapolis Center
06:55PM 40.0639 -83.3575 263° West 148 170 5,100 540 Climbing Indianapolis Center
06:56PM 40.0558 -83.4197 265° West  Level FlightAware Approximate
06:56PM 40.0647 -83.3789 273° West 146 168 5,300  Level Indianapolis Center
06:56PM 40.0625 -83.4147 265° West 152 175 5,800 420 Climbing Indianapolis Center
06:57PM 40.0569 -83.4711 263° West 158 182 6,000 60 Climbing Indianapolis Center
06:59PM 40.0547 -83.5364 267° West 169 194 6,000  Level Indianapolis Center
07:00PM 40.0506 -83.5986 265° West 172 198 6,100  Climbing Indianapolis Center
07:01PM 40.0464 -83.6608 265° West 170 196 6,000 -60 Descending Indianapolis Center
07:02PM 40.0442 -83.7233 267° West 171 197 6,000 60 Level Indianapolis Center
07:02PM 40.0436 -83.7511 269° West 172 198 6,100  Climbing Indianapolis Center
07:03PM 40.0422 -83.7833 267° West 172 198 6,000 -120 Descending Indianapolis Center
07:03PM 40.0419 -83.8131 269° West 172 198 6,000 60 Level Indianapolis Center
07:04PM 40.0397 -83.8761 267° West 173 199 6,100  Climbing Indianapolis Center
07:05PM 40.0369 -83.9164 265° West 169 194 6,000 -120 Descending Indianapolis Center
07:06PM 40.0369 -83.9794 270° West 170 196 6,000  Level Indianapolis Center
07:07PM 40.0303 -84.0439 262° West 171 197 6,100  Climbing Indianapolis Center
07:08PM 40.0258 -84.1061 265° West 168 193 6,000 -120 Descending Indianapolis Center
07:08PM 40.0250 -84.1311 268° West 169 194 6,000  Level Indianapolis Center
07:09PM 40.0206 -84.1922 265° West 169 194 6,000  Level Indianapolis Center
07:10PM 40.0156 -84.2525 264° West 168 193 6,000  Level Indianapolis Center
07:11PM 40.0111 -84.3122 264° West 166 191 6,000  Level Indianapolis Center
07:12PM 40.0058 -84.3725 263° West 166 191 6,000  Level Indianapolis Center
07:13PM 40.0028 -84.4333 266° West 166 191 6,000  Level Indianapolis Center
07:14PM 39.9964 -84.5044 263° West 168 193 6,000  Level Indianapolis Center
07:15PM 39.9903 -84.5644 262° West 167 192 6,000  Level Indianapolis Center
07:16PM 39.9858 -84.6247 265° West 167 192 6,000  Level Indianapolis Center
07:18PM 39.9803 -84.6858 263° West 167 192 6,000  Level Indianapolis Center
07:19PM 39.9753 -84.7464 264° West 168 193 6,000  Level Indianapolis Center
07:20PM 39.9694 -84.8061 263° West 167 192 6,100  Climbing Indianapolis Center
07:21PM 39.9661 -84.8675 266° West 168 193 6,000 -60 Descending Indianapolis Center
07:22PM 39.9614 -84.9358 265° West 169 194 6,000  Level Indianapolis Center
07:23PM 39.9547 -84.9964 262° West 169 194 6,000  Level Indianapolis Center
07:24PM 39.9508 -85.0564 265° West 168 193 6,000  Level Indianapolis Center
07:25PM 39.9450 -85.1164 263° West 167 192 6,000  Level Indianapolis Center
07:26PM 39.9431 -85.1756 268° West 165 190 6,100  Climbing Indianapolis Center
07:27PM 39.9394 -85.2344 265° West 165 190 6,000  Descending Indianapolis Center
07:28PM 39.9472 -85.3069 278° West 167 192 6,100  Climbing Indianapolis Center
07:29PM 39.9517 -85.3669 276° West 167 192 6,100  Level Indianapolis Center
07:30PM 39.9553 -85.4281 274° West 169 194 6,100  Level Indianapolis Center
07:31PM 39.9603 -85.4867 276° West 166 191 6,100 -300 Level Indianapolis Center
07:32PM 39.9636 -85.5514 274° West 176 203 5,600 -540 Descending Indianapolis Center
07:33PM 39.9669 -85.6175 274° West 180 207 5,000 -600 Descending Indianapolis Center
07:34PM 39.9719 -85.6844 276° West 183 211 4,400 -480 Descending Indianapolis Center
07:35PM 39.9767 -85.7642 274° West 185 213 4,100 -240 Descending Indianapolis Center
07:36PM 39.9806 -85.8242 275° West 178 205 4,000 -60 Descending Indianapolis Center
07:37PM 39.9844 -85.8794 275° West 166 191 4,000  Level Indianapolis Center
07:38PM 39.9875 -85.9347 274° West 159 183 4,100  Climbing Indianapolis Center
07:39PM 39.9903 -85.9903 274° West 156 180 4,000 -120 Descending Indianapolis Center
07:40PM 39.9922 -86.0467 273° West 156 180 3,900 -420 Descending Indianapolis Center
07:41PM 39.9889 -86.1186 267° West 161 185 3,200 -480 Descending Indianapolis Center
07:42PM 39.9839 -86.1764 264° West 163 188 3,000 -120 Descending Indianapolis Center
07:43PM 39.9628 -86.2131 233° Southwest 142 163 3,000 -300 Level Indianapolis Center
07:44PM 39.9303 -86.2336 206° Southwest 138 159 2,500 -360 Descending Indianapolis Center
07:45PM 39.9025 -86.2528 208° Southwest 134 154 2,300 -240 Descending Indianapolis Center